createdAt,value
2018-03-24T00:01:14.545Z,6.00
2018-03-24T00:03:42.065Z,6.00
2018-03-24T00:06:09.586Z,6.00
2018-03-24T00:08:37.906Z,6.00
2018-03-24T00:11:05.767Z,5.90
2018-03-24T00:13:35.440Z,5.90
2018-03-24T00:16:04.702Z,5.90
2018-03-24T00:18:35.806Z,5.90
2018-03-24T00:21:05.871Z,5.90
2018-03-24T00:23:36.012Z,5.90
2018-03-24T00:26:04.886Z,5.90
2018-03-24T00:28:36.965Z,5.90
2018-03-24T00:31:05.414Z,5.90
2018-03-24T00:33:37.502Z,5.90
2018-03-24T00:36:06.312Z,5.90
2018-03-24T00:38:36.199Z,5.90
2018-03-24T00:41:06.481Z,5.90
2018-03-24T00:43:36.508Z,5.90
2018-03-24T00:46:05.821Z,5.90
2018-03-24T00:48:37.093Z,5.90
2018-03-24T00:51:06.580Z,5.90
2018-03-24T00:53:37.807Z,5.90
2018-03-24T00:56:07.129Z,5.90
2018-03-24T00:58:35.932Z,5.90
2018-03-24T01:01:05.230Z,5.90
2018-03-24T01:03:37.868Z,5.90
2018-03-24T01:06:07.944Z,5.90
2018-03-24T01:08:37.883Z,5.90
2018-03-24T01:11:08.003Z,5.90
2018-03-24T01:13:37.926Z,5.90
2018-03-24T01:16:07.669Z,5.90
2018-03-24T01:18:39.449Z,5.90
2018-03-24T01:21:07.700Z,5.90
2018-03-24T01:23:37.625Z,5.90
2018-03-24T01:26:07.912Z,5.90
2018-03-24T01:28:38.337Z,5.90
2018-03-24T01:31:08.517Z,5.90
2018-03-24T01:33:47.061Z,5.90
2018-03-24T01:36:14.673Z,5.90
2018-03-24T01:38:42.949Z,5.90
2018-03-24T01:41:11.268Z,5.90
2018-03-24T01:43:38.831Z,5.90
2018-03-24T01:46:07.922Z,5.90
2018-03-24T01:48:38.002Z,5.90
2018-03-24T01:51:07.685Z,5.90
2018-03-24T01:53:47.961Z,5.90
2018-03-24T01:56:16.346Z,5.90
2018-03-24T01:58:44.633Z,5.90
2018-03-24T02:01:15.804Z,5.90
2018-03-24T02:03:43.421Z,5.90
2018-03-24T02:06:10.937Z,5.90
2018-03-24T02:08:40.043Z,5.90
2018-03-24T02:11:09.545Z,5.90
2018-03-24T02:13:48.965Z,5.90
2018-03-24T02:16:16.499Z,5.90
2018-03-24T02:18:44.757Z,5.90
2018-03-24T02:21:14.612Z,5.90
2018-03-24T02:23:42.869Z,5.90
2018-03-24T02:26:10.386Z,5.90
2018-03-24T02:28:38.229Z,5.90
2018-03-24T02:31:07.307Z,5.90
2018-03-24T02:33:35.898Z,5.90
2018-03-24T02:36:06.020Z,5.90
2018-03-24T02:38:35.410Z,5.80
2018-03-24T02:41:06.100Z,5.80
2018-03-24T02:43:35.744Z,5.80
2018-03-24T02:46:05.815Z,5.80
2018-03-24T02:48:36.803Z,5.70
2018-03-24T02:51:08.294Z,5.60
2018-03-24T02:53:38.290Z,5.60
2018-03-24T02:56:08.079Z,5.50
2018-03-24T02:58:39.165Z,5.50
2018-03-24T03:01:08.128Z,5.50
2018-03-24T03:03:39.190Z,5.40
2018-03-24T03:06:08.382Z,5.20
2018-03-24T03:08:37.721Z,5.20
2018-03-24T03:11:07.989Z,5.00
2018-03-24T03:13:38.094Z,5.00
2018-03-24T03:16:09.008Z,5.00
2018-03-24T03:18:39.139Z,5.00
2018-03-24T03:21:09.618Z,4.90
2018-03-24T03:23:48.217Z,4.80
2018-03-24T03:26:15.709Z,4.80
2018-03-24T03:28:43.308Z,4.80
2018-03-24T03:31:14.057Z,4.60
2018-03-24T03:33:42.350Z,4.60
2018-03-24T03:36:10.637Z,4.60
2018-03-24T03:38:40.257Z,4.50
2018-03-24T03:41:10.151Z,4.50
2018-03-24T03:43:49.217Z,4.50
2018-03-24T03:46:16.745Z,4.50
2018-03-24T03:48:44.277Z,4.40
2018-03-24T03:51:12.669Z,4.10
2018-03-24T03:53:40.934Z,3.90
2018-03-24T03:56:10.257Z,3.80
2018-03-24T03:58:39.889Z,3.70
2018-03-24T04:01:10.104Z,3.40
2018-03-24T04:03:39.256Z,3.30
2018-03-24T04:06:09.310Z,3.20
2018-03-24T04:08:39.777Z,3.20
2018-03-24T04:11:08.794Z,3.20
2018-03-24T04:13:39.050Z,3.20
2018-03-24T04:16:19.241Z,3.20
2018-03-24T04:18:46.862Z,3.30
2018-03-24T04:21:14.402Z,3.40
2018-03-24T04:23:41.902Z,3.50
2018-03-24T04:26:10.366Z,3.60
2018-03-24T04:28:40.166Z,3.70
2018-03-24T04:31:08.815Z,3.70
2018-03-24T04:33:39.889Z,3.80
2018-03-24T04:36:09.442Z,3.80
2018-03-24T04:38:39.449Z,3.80
2018-03-24T04:41:09.911Z,3.90
2018-03-24T04:43:42.993Z,3.90
2018-03-24T04:46:10.574Z,3.90
2018-03-24T04:48:39.344Z,3.90
2018-03-24T04:51:10.999Z,3.90
2018-03-24T04:53:40.045Z,3.90
2018-03-24T04:56:10.797Z,3.90
2018-03-24T04:58:39.907Z,3.90
2018-03-24T05:01:09.258Z,4.00
2018-03-24T05:03:39.498Z,4.00
2018-03-24T05:06:09.558Z,4.00
2018-03-24T05:08:38.129Z,3.90
2018-03-24T05:11:07.725Z,4.00
2018-03-24T05:13:40.409Z,3.90
2018-03-24T05:16:09.474Z,3.90
2018-03-24T05:18:40.335Z,3.90
2018-03-24T05:21:09.343Z,3.90
2018-03-24T05:23:38.178Z,3.80
2018-03-24T05:26:08.702Z,3.70
2018-03-24T05:28:47.530Z,3.60
2018-03-24T05:31:22.699Z,3.50
2018-03-24T05:33:50.327Z,3.40
2018-03-24T05:36:17.894Z,3.20
2018-03-24T05:38:46.169Z,2.90
2018-03-24T05:41:14.473Z,2.90
2018-03-24T05:43:42.742Z,2.80
2018-03-24T05:46:10.266Z,2.70
2018-03-24T05:48:39.514Z,2.60
2018-03-24T05:51:08.600Z,2.60
2018-03-24T05:53:38.254Z,2.50
2018-03-24T05:56:08.095Z,2.60
2018-03-24T05:58:39.421Z,2.50
2018-03-24T06:01:09.282Z,2.50
2018-03-24T06:03:39.321Z,2.50
2018-03-24T06:06:08.322Z,2.60
2018-03-24T06:08:38.483Z,2.80
2018-03-24T06:11:17.376Z,2.70
2018-03-24T06:13:44.834Z,2.90
2018-03-24T06:16:12.354Z,3.10
2018-03-24T06:18:39.856Z,3.30
2018-03-24T06:21:08.533Z,3.40
2018-03-24T06:23:36.513Z,3.50
2018-03-24T06:26:06.863Z,3.60
2018-03-24T06:28:45.366Z,3.70
2018-03-24T06:31:15.393Z,3.90
2018-03-24T06:33:42.898Z,4.00
2018-03-24T06:36:10.398Z,4.20
2018-03-24T06:38:39.047Z,4.30
2018-03-24T06:41:08.009Z,4.50
2018-03-24T06:43:37.221Z,4.60
2018-03-24T06:46:06.329Z,4.90
2018-03-24T06:48:34.691Z,5.10
2018-03-24T06:51:13.478Z,5.30
2018-03-24T06:53:41.757Z,5.60
2018-03-24T06:56:10.025Z,5.80
2018-03-24T06:58:38.056Z,5.80
2018-03-24T07:01:05.897Z,5.80
2018-03-24T07:03:35.031Z,5.90
2018-03-24T07:06:04.414Z,5.90
2018-03-24T07:08:34.223Z,5.90
2018-03-24T07:11:04.349Z,6.10
2018-03-24T07:13:43.199Z,6.40
2018-03-24T07:16:10.723Z,6.30
2018-03-24T07:18:38.466Z,6.40
2018-03-24T07:21:07.001Z,6.70
2018-03-24T07:23:36.240Z,7.10
2018-03-24T07:26:04.265Z,7.30
2018-03-24T07:28:33.808Z,7.70
2018-03-24T07:31:03.051Z,7.70
2018-03-24T07:33:32.231Z,8.10
2018-03-24T07:36:00.383Z,8.30
2018-03-24T07:38:28.854Z,8.60
2018-03-24T07:40:56.502Z,9.10
2018-03-24T07:43:24.018Z,9.10
2018-03-24T07:45:51.690Z,9.10
2018-03-24T07:48:20.123Z,9.50
2018-03-24T07:50:47.666Z,9.50
2018-03-24T07:53:15.170Z,10.50
2018-03-24T07:55:42.694Z,12.60
2018-03-24T07:58:10.202Z,14.20
2018-03-24T08:00:38.601Z,15.40
2018-03-24T08:03:06.205Z,15.40
2018-03-24T08:05:33.787Z,17.20
2018-03-24T08:08:01.611Z,18.60
2018-03-24T08:10:29.215Z,18.40
2018-03-24T08:12:56.842Z,18.70
2018-03-24T08:15:25.122Z,19.20
2018-03-24T08:17:52.717Z,19.10
2018-03-24T08:20:21.058Z,20.60
2018-03-24T08:22:48.670Z,20.50
2018-03-24T08:25:16.950Z,19.30
2018-03-24T08:27:45.368Z,19.60
2018-03-24T08:30:13.633Z,19.40
2018-03-24T08:32:41.155Z,19.40
2018-03-24T08:35:08.665Z,19.20
2018-03-24T08:37:36.195Z,19.30
2018-03-24T08:40:03.719Z,19.80
2018-03-24T08:42:31.271Z,18.80
2018-03-24T08:44:58.818Z,18.60
2018-03-24T08:47:26.354Z,19.10
2018-03-24T08:49:53.875Z,19.60
2018-03-24T08:52:21.394Z,20.20
2018-03-24T08:54:49.716Z,19.70
2018-03-24T08:57:18.125Z,19.60
2018-03-24T08:59:45.671Z,19.60
2018-03-24T09:02:13.210Z,19.80
2018-03-24T09:04:41.502Z,19.60
2018-03-24T09:07:09.806Z,19.40
2018-03-24T09:09:38.089Z,20.00
2018-03-24T09:12:06.353Z,19.30
2018-03-24T09:14:33.931Z,19.30
2018-03-24T09:17:01.514Z,19.80
2018-03-24T09:19:29.114Z,20.10
2018-03-24T09:21:56.618Z,19.50
2018-03-24T09:24:24.157Z,19.60
2018-03-24T09:26:51.662Z,20.50
2018-03-24T09:29:19.222Z,21.40
2018-03-24T09:31:46.768Z,20.90
2018-03-24T09:34:14.290Z,19.90
2018-03-24T09:36:41.792Z,19.60
2018-03-24T09:39:10.081Z,17.40
2018-03-24T09:41:38.354Z,16.40
2018-03-24T09:44:06.639Z,15.90
2018-03-24T09:46:34.154Z,15.90
2018-03-24T09:49:01.673Z,15.40
2018-03-24T09:51:29.327Z,15.10
2018-03-24T09:53:57.350Z,14.20
2018-03-24T09:56:24.898Z,14.00
2018-03-24T09:58:52.429Z,14.20
2018-03-24T10:01:20.080Z,14.00
2018-03-24T10:03:47.681Z,13.70
2018-03-24T10:06:15.239Z,13.80
2018-03-24T10:08:42.739Z,14.10
2018-03-24T10:11:10.286Z,14.10
2018-03-24T10:13:37.839Z,13.90
2018-03-24T10:16:05.483Z,13.40
2018-03-24T10:18:33.894Z,13.20
2018-03-24T10:24:22.917Z,13.20
2018-03-24T10:26:51.219Z,13.30
2018-03-24T10:29:18.735Z,13.30
2018-03-24T10:31:46.269Z,13.10
2018-03-24T10:34:13.769Z,13.00
2018-03-24T10:36:41.266Z,12.70
2018-03-24T10:39:08.824Z,12.60
2018-03-24T10:41:36.442Z,12.60
2018-03-24T10:44:03.993Z,12.70
2018-03-24T10:46:32.278Z,13.30
2018-03-24T10:49:00.582Z,13.10
2018-03-24T10:51:28.850Z,13.20
2018-03-24T10:53:56.373Z,13.20
2018-03-24T10:56:23.881Z,13.30
2018-03-24T10:58:51.425Z,13.60
2018-03-24T11:01:27.801Z,13.70
2018-03-24T11:03:55.318Z,13.50
2018-03-24T11:06:22.830Z,13.20
2018-03-24T11:08:50.392Z,12.90
2018-03-24T11:11:17.954Z,13.00
2018-03-24T11:13:46.225Z,12.80
2018-03-24T11:16:13.731Z,12.70
2018-03-24T11:18:41.279Z,13.10
2018-03-24T11:21:09.583Z,13.40
2018-03-24T11:23:37.117Z,13.40
2018-03-24T11:26:04.613Z,13.60
2018-03-24T11:28:32.878Z,13.20
2018-03-24T11:31:00.398Z,13.20
2018-03-24T11:33:27.955Z,13.20
2018-03-24T11:35:55.512Z,13.10
2018-03-24T11:38:23.896Z,12.70
2018-03-24T11:40:51.738Z,12.70
2018-03-24T11:43:20.102Z,13.20
2018-03-24T11:45:47.850Z,13.20
2018-03-24T11:48:16.116Z,12.70
2018-03-24T11:50:43.802Z,12.70
2018-03-24T11:53:12.043Z,12.60
2018-03-24T11:55:39.581Z,12.70
2018-03-24T11:58:07.112Z,12.70
2018-03-24T12:00:34.642Z,12.70
2018-03-24T12:03:02.189Z,12.70
2018-03-24T12:05:29.714Z,12.70
2018-03-24T12:07:57.295Z,12.70
2018-03-24T12:10:35.422Z,13.00
2018-03-24T12:13:02.937Z,13.30
2018-03-24T12:15:31.243Z,12.80
2018-03-24T12:17:59.168Z,12.70
2018-03-24T12:20:26.798Z,12.50
2018-03-24T12:22:54.743Z,12.40
2018-03-24T12:25:24.406Z,12.00
2018-03-24T12:27:54.549Z,12.00
2018-03-24T12:30:23.262Z,11.80
2018-03-24T12:32:53.250Z,11.70
2018-03-24T12:35:22.385Z,11.50
2018-03-24T12:37:52.415Z,11.40
2018-03-24T12:40:23.889Z,11.20
2018-03-24T12:42:54.460Z,11.30
2018-03-24T12:45:25.805Z,11.30
2018-03-24T12:47:54.157Z,11.30
2018-03-24T12:50:23.286Z,11.40
2018-03-24T12:52:53.453Z,11.70
2018-03-24T12:55:22.916Z,11.60
2018-03-24T12:57:51.910Z,11.70
2018-03-24T13:00:20.835Z,11.70
2018-03-24T13:02:50.712Z,11.80
2018-03-24T13:05:20.754Z,11.90
2018-03-24T13:07:52.656Z,11.90
2018-03-24T13:10:22.941Z,12.10
2018-03-24T13:12:54.289Z,11.90
2018-03-24T13:15:25.113Z,11.80
2018-03-24T13:17:54.483Z,11.80
2018-03-24T13:20:22.101Z,11.90
2018-03-24T13:22:49.613Z,12.00
2018-03-24T13:25:17.134Z,12.10
2018-03-24T13:27:44.651Z,12.10
2018-03-24T13:30:13.090Z,12.30
2018-03-24T13:32:41.260Z,12.80
2018-03-24T13:35:11.211Z,13.10
2018-03-24T13:37:39.946Z,13.10
2018-03-24T13:40:18.362Z,12.70
2018-03-24T13:42:45.881Z,12.60
2018-03-24T13:45:13.395Z,12.50
2018-03-24T13:47:41.746Z,12.40
2018-03-24T13:50:11.414Z,12.20
2018-03-24T13:52:40.372Z,12.10
2018-03-24T13:55:10.789Z,11.80
2018-03-24T13:57:40.219Z,11.70
2018-03-24T14:00:10.373Z,11.90
2018-03-24T14:02:42.730Z,11.90
2018-03-24T14:05:13.925Z,12.20
2018-03-24T14:07:43.717Z,12.10
2018-03-24T14:10:13.817Z,12.10
2018-03-24T14:12:43.523Z,12.20
2018-03-24T14:15:14.062Z,12.20
2018-03-24T14:17:43.066Z,12.20
2018-03-24T14:20:12.154Z,11.90
2018-03-24T14:22:42.066Z,11.70
2018-03-24T14:25:11.184Z,11.70
2018-03-24T14:27:41.342Z,11.80
2018-03-24T14:30:10.363Z,12.00
2018-03-24T14:32:39.087Z,12.10
2018-03-24T14:35:08.634Z,12.30
2018-03-24T14:37:38.814Z,12.40
2018-03-24T14:40:07.574Z,12.50
2018-03-24T14:42:38.353Z,12.80
2018-03-24T14:45:08.169Z,12.80
2018-03-24T14:47:39.127Z,13.00
2018-03-24T14:50:19.180Z,13.10
2018-03-24T14:52:47.447Z,13.10
2018-03-24T14:55:15.041Z,13.10
2018-03-24T14:57:43.308Z,13.00
2018-03-24T15:00:13.152Z,13.00
2018-03-24T15:02:42.159Z,13.10
2018-03-24T15:05:12.285Z,13.10
2018-03-24T15:07:42.136Z,13.20
2018-03-24T15:10:13.646Z,13.20
2018-03-24T15:12:44.322Z,13.40
2018-03-24T15:15:13.896Z,13.20
2018-03-24T15:17:44.842Z,13.20
2018-03-24T15:20:14.182Z,13.10
2018-03-24T15:22:44.154Z,13.10
2018-03-24T15:25:17.811Z,13.00
2018-03-24T15:27:45.359Z,13.00
2018-03-24T15:30:25.030Z,13.10
2018-03-24T15:32:52.583Z,13.30
2018-03-24T15:35:37.796Z,13.40
2018-03-24T15:38:14.797Z,13.40
2018-03-24T15:40:44.182Z,13.30
2018-03-24T15:43:14.745Z,13.30
2018-03-24T15:45:46.792Z,13.20
2018-03-24T15:48:15.281Z,12.90
2018-03-24T15:50:44.850Z,12.50
2018-03-24T15:53:15.026Z,12.50
2018-03-24T15:55:44.739Z,12.50
2018-03-24T15:58:14.294Z,12.50
2018-03-24T16:00:43.855Z,12.50
2018-03-24T16:03:15.764Z,12.30
2018-03-24T16:05:44.310Z,12.30
2018-03-24T16:08:13.358Z,12.40
2018-03-24T16:10:42.452Z,12.40
2018-03-24T16:13:14.307Z,12.10
2018-03-24T16:15:44.232Z,12.10
2018-03-24T16:18:14.172Z,11.90
2018-03-24T16:20:44.484Z,11.80
2018-03-24T16:23:14.177Z,11.40
2018-03-24T16:25:53.422Z,11.40
2018-03-24T16:28:20.918Z,11.30
2018-03-24T16:31:01.759Z,11.30
2018-03-24T16:33:42.984Z,11.30
2018-03-24T16:36:15.603Z,11.20
2018-03-24T16:38:45.678Z,11.20
2018-03-24T16:41:13.270Z,11.20
2018-03-24T16:43:48.345Z,11.10
2018-03-24T16:46:16.625Z,11.10
2018-03-24T16:48:44.126Z,11.00
2018-03-24T16:51:13.363Z,11.00
2018-03-24T16:53:44.199Z,11.00
2018-03-24T16:56:12.727Z,11.00
2018-03-24T16:58:41.842Z,10.90
2018-03-24T17:01:10.907Z,11.00
2018-03-24T17:03:40.532Z,10.90
2018-03-24T17:06:19.082Z,10.80
2018-03-24T17:08:46.581Z,10.70
2018-03-24T17:11:14.103Z,10.70
2018-03-24T17:13:53.582Z,10.50
2018-03-24T17:16:21.101Z,10.40
2018-03-24T17:18:49.365Z,10.20
2018-03-24T17:21:16.870Z,10.10
2018-03-24T17:23:45.150Z,9.90
2018-03-24T17:26:13.476Z,9.80
2018-03-24T17:28:42.518Z,9.80
2018-03-24T17:31:11.517Z,9.80
2018-03-24T17:33:40.140Z,9.80
2018-03-24T17:36:08.759Z,9.70
2018-03-24T17:38:38.699Z,9.60
2018-03-24T17:41:08.644Z,9.40
2018-03-24T17:43:38.120Z,9.30
2018-03-24T17:46:16.821Z,9.10
2018-03-24T17:48:44.334Z,9.10
2018-03-24T17:51:12.598Z,8.80
2018-03-24T17:53:41.137Z,8.80
2018-03-24T17:56:18.740Z,8.70
2018-03-24T17:58:46.261Z,8.70
2018-03-24T18:01:13.757Z,8.60
2018-03-24T18:03:42.125Z,8.50
2018-03-24T18:06:10.866Z,8.40
2018-03-24T18:08:40.405Z,8.30
2018-03-24T18:11:10.519Z,8.20
2018-03-24T18:13:40.860Z,8.20
2018-03-24T18:16:11.134Z,8.10
2018-03-24T18:18:49.717Z,8.00
2018-03-24T18:21:17.219Z,7.80
2018-03-24T18:23:44.753Z,7.80
2018-03-24T18:26:13.045Z,7.70
2018-03-24T18:28:42.518Z,7.70
2018-03-24T18:31:11.613Z,7.60
2018-03-24T18:33:39.828Z,7.70
2018-03-24T18:36:08.490Z,7.60
2018-03-24T18:38:39.960Z,7.40
2018-03-24T18:41:19.030Z,7.40
2018-03-24T18:43:46.538Z,7.50
2018-03-24T18:46:14.827Z,7.50
2018-03-24T18:48:43.044Z,7.40
2018-03-24T18:51:11.925Z,7.30
2018-03-24T18:53:40.746Z,7.20
2018-03-24T18:56:09.971Z,7.10
2018-03-24T18:58:38.861Z,7.20
2018-03-24T19:01:09.606Z,7.20
2018-03-24T19:03:39.158Z,7.10
2018-03-24T19:06:08.025Z,7.10
2018-03-24T19:08:37.881Z,7.10
2018-03-24T19:11:09.148Z,7.00
2018-03-24T19:13:38.931Z,7.00
2018-03-24T19:16:08.464Z,7.00
2018-03-24T19:18:38.396Z,7.00
2018-03-24T19:21:08.584Z,7.00
2018-03-24T19:23:38.098Z,7.00
2018-03-24T19:26:07.837Z,7.00
2018-03-24T19:28:43.839Z,6.70
2018-03-24T19:31:12.514Z,6.70
2018-03-24T19:33:50.967Z,6.70
2018-03-24T19:36:18.470Z,6.70
2018-03-24T19:38:45.982Z,6.70
2018-03-24T19:41:14.242Z,6.90
2018-03-24T19:43:43.966Z,6.90
2018-03-24T19:46:12.933Z,6.80
2018-03-24T19:48:50.980Z,6.80
2018-03-24T19:51:18.614Z,6.70
2018-03-24T19:53:46.223Z,6.60
2018-03-24T19:56:13.735Z,6.50
2018-03-24T19:58:42.085Z,6.10
2018-03-24T20:01:10.951Z,6.00
2018-03-24T20:03:39.453Z,5.90
2018-03-24T20:06:08.624Z,5.90
2018-03-24T20:08:38.697Z,5.80
2018-03-24T20:11:07.818Z,5.70
2018-03-24T20:13:38.217Z,5.70
2018-03-24T20:16:08.224Z,5.70
2018-03-24T20:18:44.877Z,5.70
2018-03-24T20:21:13.881Z,5.70
2018-03-24T20:23:43.629Z,5.60
2018-03-24T20:26:12.906Z,5.60
2018-03-24T20:28:42.281Z,5.50
2018-03-24T20:31:11.288Z,5.40
2018-03-24T20:33:43.586Z,4.90
2018-03-24T20:36:16.550Z,4.80
2018-03-24T20:38:44.183Z,4.70
2018-03-24T20:41:13.386Z,4.60
2018-03-24T20:43:42.093Z,4.50
2018-03-24T20:46:11.410Z,4.30
2018-03-24T20:48:40.409Z,4.30
2018-03-24T20:51:09.529Z,4.30
2018-03-24T20:53:49.355Z,4.10
2018-03-24T20:56:17.639Z,4.00
2018-03-24T20:58:45.152Z,3.90
2018-03-24T21:01:12.894Z,3.90
2018-03-24T21:03:41.773Z,3.80
2018-03-24T21:06:20.388Z,3.80
2018-03-24T21:08:47.926Z,3.70
2018-03-24T21:11:15.485Z,3.70
2018-03-24T21:13:43.770Z,3.50
2018-03-24T21:16:12.121Z,3.50
2018-03-24T21:18:41.877Z,3.50
2018-03-24T21:21:11.414Z,3.60
2018-03-24T21:23:39.329Z,3.50
2018-03-24T21:26:18.752Z,3.50
2018-03-24T21:28:46.251Z,3.40
2018-03-24T21:31:13.771Z,3.30
2018-03-24T21:33:42.186Z,3.20
2018-03-24T21:36:09.793Z,3.20
2018-03-24T21:38:38.461Z,3.20
2018-03-24T21:41:07.543Z,3.10
2018-03-24T21:43:47.157Z,3.20
2018-03-24T21:46:14.674Z,3.10
2018-03-24T21:48:42.942Z,3.10
2018-03-24T21:51:10.546Z,3.10
2018-03-24T21:53:38.171Z,3.00
2018-03-24T21:56:06.722Z,3.00
2018-03-24T21:58:35.535Z,3.00
2018-03-24T22:01:05.577Z,3.00
2018-03-24T22:03:32.119Z,3.00
2018-03-24T22:06:00.492Z,2.90
2018-03-24T22:08:28.994Z,2.80
2018-03-24T22:10:56.749Z,2.80
2018-03-24T22:13:24.464Z,2.90
2018-03-24T22:15:52.124Z,3.00
2018-03-24T22:18:19.648Z,3.00
2018-03-24T22:20:47.154Z,3.00
2018-03-24T22:23:14.671Z,3.00
2018-03-24T22:25:43.118Z,3.10
2018-03-24T22:28:11.755Z,3.10
2018-03-24T22:30:40.462Z,3.10
2018-03-24T22:33:09.036Z,3.30
2018-03-24T22:35:38.803Z,3.50
2018-03-24T22:38:09.453Z,3.40
2018-03-24T22:40:38.987Z,3.40
2018-03-24T22:43:10.376Z,3.30
2018-03-24T22:45:40.345Z,3.20
2018-03-24T22:48:10.730Z,3.20
2018-03-24T22:50:41.769Z,3.20
2018-03-24T22:53:13.006Z,3.20
2018-03-24T22:55:52.350Z,3.20
2018-03-24T22:58:19.850Z,3.10
2018-03-24T23:00:48.137Z,3.10
2018-03-24T23:03:16.403Z,3.00
2018-03-24T23:05:44.179Z,2.90
2018-03-24T23:08:13.418Z,2.80
2018-03-24T23:10:52.765Z,2.70
2018-03-24T23:13:21.030Z,2.60
2018-03-24T23:15:48.554Z,2.60
2018-03-24T23:18:16.049Z,2.50
2018-03-24T23:20:45.089Z,2.40
2018-03-24T23:23:14.361Z,2.20
2018-03-24T23:25:45.094Z,2.20
2018-03-24T23:28:15.189Z,2.10
2018-03-24T23:30:44.124Z,2.20
2018-03-24T23:33:16.046Z,2.10
2018-03-24T23:35:45.308Z,2.10
2018-03-24T23:38:14.207Z,2.10
2018-03-24T23:40:45.005Z,2.20
2018-03-24T23:43:15.197Z,2.20
2018-03-24T23:45:45.145Z,2.30
2018-03-24T23:48:15.130Z,2.30
2018-03-24T23:50:45.335Z,2.30
2018-03-24T23:53:15.286Z,2.30
2018-03-24T23:55:44.954Z,2.30
2018-03-24T23:58:13.238Z,2.30
